createdAt,value
2018-11-23T00:00:29.807Z,102488.60
2018-11-23T00:03:00.115Z,102491.27
2018-11-23T00:05:29.732Z,102483.02
2018-11-23T00:08:00.070Z,102483.39
2018-11-23T00:10:31.371Z,102481.36
2018-11-23T00:13:00.992Z,102478.95
2018-11-23T00:18:24.771Z,102468.56
2018-11-23T00:20:54.390Z,102459.72
2018-11-23T00:23:23.970Z,102451.22
2018-11-23T00:25:53.934Z,102453.31
2018-11-23T00:28:23.549Z,102453.37
2018-11-23T00:30:53.132Z,102456.27
2018-11-23T00:33:22.714Z,102457.55
2018-11-23T00:35:52.410Z,102463.06
2018-11-23T00:38:22.007Z,102452.31
2018-11-23T00:40:52.267Z,102459.86
2018-11-23T00:43:21.899Z,102459.55
2018-11-23T00:45:51.479Z,102459.29
2018-11-23T00:48:21.096Z,102459.99
2018-11-23T00:50:50.715Z,102463.00
2018-11-23T00:53:20.313Z,102468.46
2018-11-23T00:55:49.912Z,102471.14
2018-11-23T00:58:19.527Z,102465.78
2018-11-23T01:00:49.142Z,102463.91
2018-11-23T01:03:18.720Z,102460.22
2018-11-23T01:05:48.410Z,102462.47
2018-11-23T01:08:18.001Z,102462.52
2018-11-23T01:11:06.253Z,102466.80
2018-11-23T01:13:35.972Z,102467.48
2018-11-23T01:16:05.540Z,102473.96
2018-11-23T01:18:35.142Z,102477.96
2018-11-23T01:21:04.715Z,102471.84
2018-11-23T01:23:34.303Z,102468.03
2018-11-23T01:26:03.941Z,102471.23
2018-11-23T01:28:33.616Z,102470.16
2018-11-23T01:31:03.224Z,102469.08
2018-11-23T01:33:32.841Z,102465.56
2018-11-23T01:36:02.423Z,102459.95
2018-11-23T01:38:32.326Z,102459.08
2018-11-23T01:41:02.290Z,102460.05
2018-11-23T01:43:32.104Z,102455.02
2018-11-23T01:46:01.740Z,102450.37
2018-11-23T01:48:31.354Z,102445.92
2018-11-23T01:51:00.934Z,102445.82
2018-11-23T01:53:30.551Z,102438.65
2018-11-23T01:56:00.175Z,102437.47
2018-11-23T01:58:29.791Z,102435.97
2018-11-23T02:01:18.038Z,102433.50
2018-11-23T02:06:41.942Z,102427.08
2018-11-23T02:09:30.165Z,102421.45
2018-11-23T02:11:59.808Z,102425.31
2018-11-23T02:14:29.502Z,102425.36
2018-11-23T02:17:17.822Z,102418.56
2018-11-23T02:19:47.403Z,102421.28
2018-11-23T02:22:16.985Z,102421.82
2018-11-23T02:24:46.641Z,102424.23
2018-11-23T02:27:16.268Z,102429.91
2018-11-23T02:29:45.870Z,102433.01
2018-11-23T02:32:34.437Z,102425.89
2018-11-23T02:35:16.177Z,102425.30
2018-11-23T02:37:46.200Z,102416.63
2018-11-23T02:40:17.006Z,102421.02
2018-11-23T02:42:46.678Z,102413.30
2018-11-23T02:45:36.044Z,102419.29
2018-11-23T02:50:59.373Z,102411.61
2018-11-23T02:53:28.954Z,102409.42
2018-11-23T02:55:58.621Z,102410.83
2018-11-23T02:58:28.189Z,102415.97
2018-11-23T03:00:57.850Z,102414.52
2018-11-23T03:03:27.447Z,102416.25
2018-11-23T03:08:32.002Z,102420.80
2018-11-23T03:11:01.623Z,102415.34
2018-11-23T03:13:31.208Z,102410.58
2018-11-23T03:16:00.795Z,102409.23
2018-11-23T03:18:30.522Z,102405.81
2018-11-23T03:21:00.106Z,102398.97
2018-11-23T03:23:29.670Z,102394.52
2018-11-23T03:25:59.275Z,102401.42
2018-11-23T03:28:29.212Z,102400.98
2018-11-23T03:30:59.134Z,102394.99
2018-11-23T03:33:28.789Z,102397.15
2018-11-23T03:35:58.356Z,102389.87
2018-11-23T03:38:27.957Z,102393.89
2018-11-23T03:40:57.562Z,102399.13
2018-11-23T03:43:27.150Z,102398.59
2018-11-23T03:45:56.981Z,102392.77
2018-11-23T03:48:26.664Z,102385.43
2018-11-23T03:50:56.325Z,102385.55
2018-11-23T03:53:25.956Z,102381.00
2018-11-23T03:55:55.577Z,102385.98
2018-11-23T03:58:25.153Z,102383.74
2018-11-23T04:00:54.726Z,102380.95
2018-11-23T04:03:24.446Z,102377.05
2018-11-23T04:05:54.017Z,102372.28
2018-11-23T04:08:23.754Z,102365.48
2018-11-23T04:10:53.375Z,102361.48
2018-11-23T04:13:22.939Z,102362.66
2018-11-23T04:15:52.508Z,102356.98
2018-11-23T04:18:22.388Z,102363.78
2018-11-23T04:21:10.676Z,102358.00
2018-11-23T04:23:40.246Z,102362.70
2018-11-23T04:26:09.843Z,102362.01
2018-11-23T04:28:39.419Z,102358.80
2018-11-23T04:31:09.059Z,102360.68
2018-11-23T04:33:38.893Z,102362.18
2018-11-23T04:36:08.472Z,102364.10
2018-11-23T04:38:56.769Z,102359.72
2018-11-23T04:41:26.728Z,102356.13
2018-11-23T04:43:56.314Z,102361.81
2018-11-23T04:46:25.975Z,102368.50
2018-11-23T04:48:55.707Z,102363.19
2018-11-23T04:51:25.318Z,102358.00
2018-11-23T04:53:54.951Z,102356.81
2018-11-23T04:56:24.540Z,102346.53
2018-11-23T04:58:54.189Z,102355.09
2018-11-23T05:01:23.794Z,102343.22
2018-11-23T05:03:53.917Z,102343.22
2018-11-23T05:06:23.506Z,102340.96
2018-11-23T05:08:53.214Z,102344.44
2018-11-23T05:11:22.815Z,102338.55
2018-11-23T05:13:52.417Z,102335.55
2018-11-23T05:16:22.052Z,102334.57
2018-11-23T05:18:51.660Z,102328.20
2018-11-23T05:21:40.263Z,102330.09
2018-11-23T05:24:21.146Z,102333.19
2018-11-23T05:27:09.673Z,102330.53
2018-11-23T05:29:39.324Z,102330.39
2018-11-23T05:32:09.299Z,102329.06
2018-11-23T05:34:38.902Z,102329.59
2018-11-23T05:37:08.496Z,102329.27
2018-11-23T05:39:38.098Z,102330.49
2018-11-23T05:42:07.770Z,102322.19
2018-11-23T05:44:37.452Z,102324.01
2018-11-23T05:47:07.620Z,102321.59
2018-11-23T05:49:37.258Z,102324.01
2018-11-23T05:52:06.895Z,102325.63
2018-11-23T05:54:36.709Z,102326.22
2018-11-23T05:57:06.348Z,102323.34
2018-11-23T05:59:35.982Z,102325.75
2018-11-23T06:02:05.589Z,102327.68
2018-11-23T06:04:35.484Z,102321.42
2018-11-23T06:07:05.202Z,102332.70
2018-11-23T06:09:35.104Z,102325.27
2018-11-23T06:12:23.698Z,102319.60
2018-11-23T06:14:53.352Z,102324.47
2018-11-23T06:17:42.163Z,102318.95
2018-11-23T06:20:14.224Z,102316.11
2018-11-23T06:22:44.707Z,102313.05
2018-11-23T06:25:34.876Z,102319.19
2018-11-23T06:28:04.610Z,102319.94
2018-11-23T06:30:34.233Z,102316.52
2018-11-23T06:33:45.941Z,102323.79
2018-11-23T06:36:15.542Z,102320.72
2018-11-23T06:38:45.151Z,102318.16
2018-11-23T06:41:14.833Z,102321.69
2018-11-23T06:43:44.455Z,102321.00
2018-11-23T06:46:14.392Z,102325.77
2018-11-23T06:48:44.010Z,102321.53
2018-11-23T06:51:13.788Z,102318.44
2018-11-23T06:53:43.383Z,102329.05
2018-11-23T06:56:31.664Z,102331.05
2018-11-23T06:59:01.644Z,102331.69
2018-11-23T07:01:31.255Z,102331.48
2018-11-23T07:04:00.868Z,102337.52
2018-11-23T07:06:30.571Z,102331.48
2018-11-23T07:09:00.249Z,102341.27
2018-11-23T07:11:49.118Z,102336.07
2018-11-23T07:14:18.689Z,102332.86
2018-11-23T07:16:48.348Z,102338.11
2018-11-23T07:19:17.950Z,102336.19
2018-11-23T07:21:47.603Z,102329.92
2018-11-23T07:24:17.217Z,102328.27
2018-11-23T07:29:42.393Z,102325.80
2018-11-23T07:32:12.026Z,102327.52
2018-11-23T07:34:41.617Z,102333.03
2018-11-23T07:37:11.198Z,102332.55
2018-11-23T07:40:19.819Z,102336.23
2018-11-23T07:42:49.438Z,102333.67
2018-11-23T07:45:19.018Z,102334.73
2018-11-23T07:47:48.642Z,102334.31
2018-11-23T07:50:18.298Z,102339.45
2018-11-23T07:52:47.868Z,102327.20
2018-11-23T07:55:17.487Z,102329.71
2018-11-23T07:57:47.075Z,102325.22
2018-11-23T08:00:18.837Z,102321.27
2018-11-23T08:02:48.920Z,102324.63
2018-11-23T08:05:37.738Z,102322.76
2018-11-23T08:08:07.945Z,102332.44
2018-11-23T08:10:36.330Z,102336.08
2018-11-23T08:13:06.382Z,102333.83
2018-11-23T08:15:36.016Z,102333.67
2018-11-23T08:18:05.674Z,102331.20
2018-11-23T08:20:54.008Z,102333.83
2018-11-23T08:23:23.599Z,102331.84
2018-11-23T08:26:12.219Z,102335.59
2018-11-23T08:29:00.704Z,102333.61
2018-11-23T08:31:30.320Z,102330.34
2018-11-23T08:33:59.911Z,102325.58
2018-11-23T08:36:29.542Z,102317.46
2018-11-23T08:39:04.608Z,102312.17
2018-11-23T08:41:28.863Z,102309.81
2018-11-23T08:43:58.371Z,102315.48
2018-11-23T08:46:28.015Z,102312.97
2018-11-23T08:48:57.588Z,102310.72
2018-11-23T08:51:27.420Z,102309.39
2018-11-23T08:53:57.044Z,102306.66
2018-11-23T08:56:26.689Z,102311.63
2018-11-23T08:59:14.952Z,102313.88
2018-11-23T09:01:44.545Z,102315.80
2018-11-23T09:04:14.176Z,102306.70
2018-11-23T09:06:43.917Z,102305.95
2018-11-23T09:09:13.538Z,102313.92
2018-11-23T09:11:43.121Z,102312.05
2018-11-23T09:14:13.130Z,102309.69
2018-11-23T09:17:01.813Z,102306.54
2018-11-23T09:19:31.405Z,102309.00
2018-11-23T09:22:23.535Z,102310.88
2018-11-23T09:24:49.705Z,102309.44
2018-11-23T09:27:19.322Z,102313.19
2018-11-23T09:29:48.944Z,102312.39
2018-11-23T09:32:19.429Z,102320.83
2018-11-23T09:34:49.048Z,102314.58
2018-11-23T09:37:18.970Z,102314.58
2018-11-23T09:39:48.631Z,102310.08
2018-11-23T09:42:18.204Z,102312.59
2018-11-23T09:45:06.462Z,102308.75
2018-11-23T09:50:30.144Z,102305.70
2018-11-23T09:53:01.367Z,102295.27
2018-11-23T09:55:31.988Z,102303.83
2018-11-23T09:58:01.634Z,102294.63
2018-11-23T10:00:50.187Z,102286.45
2018-11-23T10:03:19.786Z,102288.69
2018-11-23T10:05:49.391Z,102284.52
2018-11-23T10:08:19.228Z,102277.73
2018-11-23T10:10:48.892Z,102274.31
2018-11-23T10:13:18.469Z,102276.41
2018-11-23T10:15:48.394Z,102272.02
2018-11-23T10:18:36.630Z,102269.08
2018-11-23T10:21:25.473Z,102266.56
2018-11-23T10:23:55.547Z,102263.28
2018-11-23T10:26:25.117Z,102247.28
2018-11-23T10:28:54.690Z,102250.02
2018-11-23T10:31:24.306Z,102253.61
2018-11-23T10:33:53.885Z,102246.56
2018-11-23T10:36:23.529Z,102245.59
2018-11-23T10:39:11.949Z,102241.78
2018-11-23T10:41:41.535Z,102240.00
2018-11-23T10:44:11.161Z,102237.80
2018-11-23T10:46:40.808Z,102240.75
2018-11-23T10:49:10.754Z,102237.43
2018-11-23T10:51:40.329Z,102235.30
2018-11-23T10:54:09.953Z,102233.14
2018-11-23T10:56:39.836Z,102234.73
2018-11-23T10:59:09.346Z,102225.45
2018-11-23T11:01:57.670Z,102224.84
2018-11-23T11:04:45.993Z,102231.91
2018-11-23T11:07:15.625Z,102233.11
2018-11-23T11:10:03.834Z,102240.50
2018-11-23T11:12:34.223Z,102232.04
2018-11-23T11:15:04.053Z,102235.45
2018-11-23T11:17:33.634Z,102232.67
2018-11-23T11:22:39.130Z,102229.44
2018-11-23T11:25:09.887Z,102199.35
2018-11-23T11:27:40.584Z,102216.53
2018-11-23T11:30:30.354Z,102215.50
2018-11-23T11:33:00.063Z,102210.67
2018-11-23T11:35:29.644Z,102207.28
2018-11-23T11:37:59.277Z,102198.22
2018-11-23T11:40:29.004Z,102204.80
2018-11-23T11:42:58.957Z,102194.14
2018-11-23T11:45:28.580Z,102198.30
2018-11-23T11:47:58.167Z,102201.03
2018-11-23T11:50:27.743Z,102200.72
2018-11-23T11:52:57.365Z,102197.31
2018-11-23T11:55:26.956Z,102194.89
2018-11-23T12:00:45.206Z,102182.13
2018-11-23T12:03:14.823Z,102178.72
2018-11-23T12:06:03.101Z,102169.72
2018-11-23T12:08:32.716Z,102177.89
2018-11-23T12:11:02.298Z,102176.84
2018-11-23T12:16:26.352Z,102176.62
2018-11-23T12:18:55.992Z,102186.36
2018-11-23T12:21:25.580Z,102173.59
2018-11-23T12:23:55.146Z,102164.14
2018-11-23T12:26:24.769Z,102158.25
2018-11-23T12:28:54.360Z,102156.66
2018-11-23T12:31:24.379Z,102157.12
2018-11-23T12:33:54.005Z,102157.12
2018-11-23T12:36:23.643Z,102158.10
2018-11-23T12:38:53.305Z,102147.52
2018-11-23T12:41:23.272Z,102148.80
2018-11-23T12:43:52.901Z,102135.36
2018-11-23T12:46:23.230Z,102141.10
2018-11-23T12:49:12.369Z,102136.57
2018-11-23T12:51:41.946Z,102132.56
2018-11-23T12:54:30.372Z,102121.15
2018-11-23T12:57:00.094Z,102120.77
2018-11-23T12:59:29.685Z,102110.11
2018-11-23T13:01:59.961Z,102110.03
2018-11-23T13:04:29.543Z,102104.22
2018-11-23T13:07:18.326Z,102097.72
2018-11-23T13:09:47.944Z,102098.02
2018-11-23T13:12:17.556Z,102088.12
2018-11-23T13:14:47.454Z,102096.36
2018-11-23T13:17:35.937Z,102099.83
2018-11-23T13:20:07.552Z,102093.94
2018-11-23T13:22:37.307Z,102094.91
2018-11-23T13:25:27.604Z,102095.89
2018-11-23T13:27:57.360Z,102095.81
2018-11-23T13:30:31.560Z,102099.28
2018-11-23T13:33:01.139Z,102102.84
2018-11-23T13:35:30.847Z,102097.55
2018-11-23T13:38:00.714Z,102099.52
2018-11-23T13:40:30.815Z,102093.01
2018-11-23T13:43:01.569Z,102089.45
2018-11-23T13:45:32.825Z,102090.50
2018-11-23T13:48:02.633Z,102084.75
2018-11-23T13:50:32.210Z,102093.05
2018-11-23T13:53:02.803Z,102083.91
2018-11-23T13:55:32.481Z,102078.62
2018-11-23T13:58:02.354Z,102076.57
2018-11-23T14:00:31.975Z,102080.20
2018-11-23T14:03:02.160Z,102072.78
2018-11-23T14:05:32.740Z,102077.84
2018-11-23T14:08:03.932Z,102073.59
2018-11-23T14:10:33.535Z,102069.98
2018-11-23T14:13:03.129Z,102072.84
2018-11-23T14:15:51.526Z,102070.87
2018-11-23T14:18:42.830Z,102064.01
2018-11-23T14:21:12.569Z,102067.41
2018-11-23T14:23:42.157Z,102063.31
2018-11-23T14:26:11.710Z,102061.94
2018-11-23T14:28:41.451Z,102061.70
2018-11-23T14:31:11.027Z,102067.00
2018-11-23T14:33:40.704Z,102050.89
2018-11-23T14:36:10.504Z,102063.61
2018-11-23T14:38:40.101Z,102050.89
2018-11-23T14:41:09.696Z,102045.52
2018-11-23T14:43:39.543Z,102042.70
2018-11-23T14:46:09.147Z,102039.91
2018-11-23T14:48:38.850Z,102047.23
2018-11-23T14:51:09.071Z,102046.63
2018-11-23T14:53:38.671Z,102039.81
2018-11-23T14:56:08.370Z,102040.48
2018-11-23T14:58:38.022Z,102035.86
2018-11-23T15:01:07.996Z,102035.11
2018-11-23T15:03:37.755Z,102022.71
2018-11-23T15:06:07.323Z,102027.86
2018-11-23T15:08:36.909Z,102034.95
2018-11-23T15:11:07.385Z,102029.43
2018-11-23T15:13:36.984Z,102034.58
2018-11-23T15:16:08.850Z,102031.19
2018-11-23T15:18:38.426Z,102027.19
2018-11-23T15:21:09.593Z,102036.09
2018-11-23T15:23:39.099Z,102028.91
2018-11-23T15:26:08.760Z,102029.43
2018-11-23T15:28:38.831Z,102024.14
2018-11-23T15:31:08.632Z,102027.95
2018-11-23T15:33:38.220Z,102026.37
2018-11-23T15:36:27.001Z,102025.47
2018-11-23T15:39:15.477Z,102026.23
2018-11-23T15:41:45.470Z,102030.75
2018-11-23T15:44:33.724Z,102028.85
2018-11-23T15:47:03.620Z,102020.14
2018-11-23T15:49:33.234Z,102025.34
2018-11-23T15:52:03.088Z,102023.30
2018-11-23T15:54:32.956Z,102017.00
2018-11-23T15:57:02.538Z,102023.87
2018-11-23T15:59:32.141Z,102013.72
2018-11-23T16:02:01.853Z,102007.58
2018-11-23T16:04:50.070Z,102014.30
2018-11-23T16:07:19.994Z,102006.81
2018-11-23T16:09:49.601Z,101994.42
2018-11-23T16:12:19.193Z,101995.05
2018-11-23T16:14:49.469Z,101999.09
2018-11-23T16:17:19.081Z,101991.32
2018-11-23T16:20:07.440Z,101989.60
2018-11-23T16:22:37.287Z,101992.47
2018-11-23T16:25:08.442Z,101990.33
2018-11-23T16:27:38.617Z,101990.61
2018-11-23T16:30:12.916Z,101987.89
2018-11-23T16:32:42.598Z,101998.95
2018-11-23T16:35:12.367Z,102006.66
2018-11-23T16:37:42.461Z,102001.98
2018-11-23T16:40:14.313Z,101999.66
2018-11-23T16:42:44.227Z,101991.17
2018-11-23T16:45:34.105Z,101997.38
2018-11-23T16:48:05.159Z,101990.51
2018-11-23T16:50:34.949Z,101992.41
2018-11-23T16:53:26.165Z,101985.69
2018-11-23T16:55:55.761Z,101990.84
2018-11-23T16:58:44.126Z,101994.55
2018-11-23T17:01:13.709Z,101992.59
2018-11-23T17:03:43.401Z,101989.91
2018-11-23T17:06:13.255Z,101986.47
2018-11-23T17:08:42.868Z,102004.05
2018-11-23T17:11:12.492Z,101987.51
2018-11-23T17:13:42.415Z,101983.73
2018-11-23T17:16:30.998Z,101982.77
2018-11-23T17:19:00.957Z,101981.41
2018-11-23T17:21:30.541Z,101971.80
2018-11-23T17:24:00.142Z,101978.22
2018-11-23T17:26:29.876Z,101979.73
2018-11-23T17:28:59.459Z,101980.28
2018-11-23T17:31:29.059Z,101976.59
2018-11-23T17:33:58.858Z,101977.04
2018-11-23T17:36:28.449Z,101975.91
2018-11-23T17:38:58.078Z,101971.23
2018-11-23T17:41:28.445Z,101962.91
2018-11-23T17:43:58.167Z,101963.05
2018-11-23T17:46:27.686Z,101965.92
2018-11-23T17:48:57.517Z,101951.79
2018-11-23T17:51:27.169Z,101948.61
2018-11-23T17:53:56.785Z,101942.80
2018-11-23T17:56:29.900Z,101945.28
2018-11-23T17:58:59.749Z,101945.42
2018-11-23T18:01:48.257Z,101942.33
2018-11-23T18:04:18.009Z,101947.03
2018-11-23T18:06:47.600Z,101942.65
2018-11-23T18:09:17.748Z,101938.94
2018-11-23T18:11:47.357Z,101938.87
2018-11-23T18:14:16.970Z,101942.30
2018-11-23T18:16:46.904Z,101941.91
2018-11-23T18:19:16.757Z,101937.68
2018-11-23T18:21:46.333Z,101937.68
2018-11-23T18:24:16.247Z,101935.95
2018-11-23T18:26:45.851Z,101932.56
2018-11-23T18:29:15.464Z,101937.03
2018-11-23T18:31:45.203Z,101936.66
2018-11-23T18:34:14.795Z,101937.58
2018-11-23T18:36:44.466Z,101930.24
2018-11-23T18:39:14.396Z,101935.99
2018-11-23T18:41:43.968Z,101938.41
2018-11-23T18:44:13.540Z,101933.42
2018-11-23T18:46:43.412Z,101925.11
2018-11-23T18:49:13.007Z,101939.31
2018-11-23T18:51:42.615Z,101928.46
2018-11-23T18:54:12.863Z,101913.10
2018-11-23T18:56:42.436Z,101920.88
2018-11-23T18:59:12.101Z,101912.36
2018-11-23T19:01:41.851Z,101910.31
2018-11-23T19:04:11.444Z,101907.82
2018-11-23T19:06:41.411Z,101908.34
2018-11-23T19:09:11.727Z,101917.11
2018-11-23T19:11:41.695Z,101912.34
2018-11-23T19:14:30.251Z,101913.70
2018-11-23T19:17:00.046Z,101902.30
2018-11-23T19:19:29.637Z,101906.02
2018-11-23T19:21:59.523Z,101900.28
2018-11-23T19:24:29.128Z,101899.23
2018-11-23T19:26:59.337Z,101888.74
2018-11-23T19:29:29.036Z,101897.65
2018-11-23T19:32:17.247Z,101892.52
2018-11-23T19:35:06.383Z,101892.52
2018-11-23T19:37:35.994Z,101887.39
2018-11-23T19:40:25.098Z,101887.46
2018-11-23T19:43:13.601Z,101891.09
2018-11-23T19:45:43.500Z,101876.52
2018-11-23T19:48:13.532Z,101887.91
2018-11-23T19:50:43.097Z,101885.73
2018-11-23T19:53:13.018Z,101879.99
2018-11-23T19:55:42.560Z,101886.94
2018-11-23T19:58:12.222Z,101885.35
2018-11-23T20:00:42.401Z,101883.77
2018-11-23T20:03:12.038Z,101871.84
2018-11-23T20:05:41.614Z,101867.01
2018-11-23T20:08:11.523Z,101871.61
2018-11-23T20:11:10.312Z,101868.90
2018-11-23T20:13:40.129Z,101861.50
2018-11-23T20:16:09.712Z,101856.75
2018-11-23T20:18:39.652Z,101865.42
2018-11-23T20:21:09.456Z,101859.84
2018-11-23T20:23:39.043Z,101859.92
2018-11-23T20:26:08.636Z,101857.20
2018-11-23T20:28:38.562Z,101848.23
2018-11-23T20:31:29.007Z,101855.92
2018-11-23T20:33:58.970Z,101854.18
2018-11-23T20:36:28.563Z,101860.52
2018-11-23T20:38:58.176Z,101854.78
2018-11-23T20:41:27.970Z,101853.88
2018-11-23T20:43:57.576Z,101850.03
2018-11-23T20:46:27.176Z,101841.50
2018-11-23T20:48:57.440Z,101840.28
2018-11-23T20:51:27.071Z,101838.70
2018-11-23T20:53:56.760Z,101844.38
2018-11-23T20:56:26.532Z,101831.86
2018-11-23T20:58:56.142Z,101842.11
2018-11-23T21:01:25.888Z,101835.09
2018-11-23T21:03:55.702Z,101834.72
2018-11-23T21:06:25.507Z,101825.51
2018-11-23T21:09:14.270Z,101827.09
2018-11-23T21:11:44.043Z,101828.38
2018-11-23T21:14:13.620Z,101824.14
2018-11-23T21:17:02.315Z,101815.92
2018-11-23T21:19:31.976Z,101817.35
2018-11-23T21:22:01.584Z,101818.41
2018-11-23T21:24:31.522Z,101817.80
2018-11-23T21:27:01.124Z,101820.05
2018-11-23T21:29:30.765Z,101824.49
2018-11-23T21:32:00.509Z,101821.31
2018-11-23T21:34:30.134Z,101811.05
2018-11-23T21:37:19.565Z,101810.06
2018-11-23T21:39:49.187Z,101814.73
2018-11-23T21:42:18.810Z,101814.41
2018-11-23T21:45:08.259Z,101810.10
2018-11-23T21:50:32.146Z,101807.99
2018-11-23T21:53:01.735Z,101805.10
2018-11-23T21:55:31.644Z,101807.82
2018-11-23T21:58:01.391Z,101803.82
2018-11-23T22:00:30.984Z,101803.97
2018-11-23T22:03:02.983Z,101802.59
2018-11-23T22:05:32.582Z,101805.22
2018-11-23T22:08:02.183Z,101804.36
2018-11-23T22:10:31.974Z,101807.17
2018-11-23T22:13:20.223Z,101803.70
2018-11-23T22:16:02.689Z,101797.52
2018-11-23T22:18:32.331Z,101799.87
2018-11-23T22:23:50.673Z,101794.70
2018-11-23T22:26:20.272Z,101787.58
2018-11-23T22:28:49.841Z,101787.25
2018-11-23T22:31:19.794Z,101782.11
2018-11-23T22:33:49.433Z,101777.54
2018-11-23T22:36:38.190Z,101777.44
2018-11-23T22:39:10.038Z,101773.81
2018-11-23T22:41:58.485Z,101770.96
2018-11-23T22:44:47.323Z,101773.30
2018-11-23T22:47:17.175Z,101778.63
2018-11-23T22:49:46.768Z,101779.58
2018-11-23T22:52:16.356Z,101776.78
2018-11-23T22:54:46.088Z,101768.87
2018-11-23T22:57:15.667Z,101767.45
2018-11-23T22:59:45.252Z,101768.64
2018-11-23T23:02:15.121Z,101761.41
2018-11-23T23:04:45.062Z,101762.45
2018-11-23T23:07:14.647Z,101759.13
2018-11-23T23:09:44.761Z,101751.38
2018-11-23T23:12:14.353Z,101747.33
2018-11-23T23:14:43.941Z,101744.75
2018-11-23T23:17:13.887Z,101734.91
2018-11-23T23:19:43.475Z,101727.21
2018-11-23T23:22:13.344Z,101729.06
2018-11-23T23:24:43.114Z,101722.27
2018-11-23T23:27:12.759Z,101716.27
2018-11-23T23:29:42.280Z,101721.17
2018-11-23T23:32:12.142Z,101712.38
2018-11-23T23:34:41.772Z,101709.52
2018-11-23T23:37:11.351Z,101711.09
2018-11-23T23:39:41.190Z,101711.23
2018-11-23T23:42:11.183Z,101710.23
2018-11-23T23:44:40.773Z,101708.57
2018-11-23T23:47:10.534Z,101705.00
2018-11-23T23:49:58.750Z,101700.01
2018-11-23T23:52:47.340Z,101695.53
2018-11-23T23:55:17.146Z,101704.57
2018-11-23T23:57:47.391Z,101705.52
